createdAt,value
2023-02-11T00:00:07.808Z,44.70
2023-02-11T00:01:40.210Z,48.45
2023-02-11T00:03:12.307Z,46.47
2023-02-11T00:04:44.529Z,42.95
2023-02-11T00:06:17.055Z,51.10
2023-02-11T00:07:49.093Z,42.10
2023-02-11T00:09:21.258Z,42.53
2023-02-11T00:10:58.085Z,48.05
2023-02-11T00:12:30.701Z,49.60
2023-02-11T00:14:08.566Z,46.78
2023-02-11T00:15:41.880Z,41.10
2023-02-11T00:17:14.202Z,46.65
2023-02-11T00:18:46.881Z,47.97
2023-02-11T00:20:19.034Z,46.65
2023-02-11T00:21:51.466Z,42.58
2023-02-11T00:23:25.892Z,45.85
2023-02-11T00:25:01.216Z,40.67
2023-02-11T00:26:35.611Z,40.05
2023-02-11T00:28:08.569Z,43.25
2023-02-11T00:31:17.665Z,44.15
2023-02-11T00:32:50.036Z,42.75
2023-02-11T00:34:32.043Z,43.50
2023-02-11T00:36:07.105Z,40.85
2023-02-11T00:37:39.419Z,49.50
2023-02-11T00:39:11.896Z,43.95
2023-02-11T00:40:44.174Z,38.65
2023-02-11T00:42:16.464Z,47.67
2023-02-11T00:43:50.529Z,41.63
2023-02-11T00:45:24.367Z,37.42
2023-02-11T00:46:56.574Z,44.30
2023-02-11T00:48:35.439Z,41.33
2023-02-11T00:50:11.574Z,41.03
2023-02-11T00:53:31.323Z,41.20
2023-02-11T00:56:37.218Z,40.83
2023-02-11T00:58:09.352Z,38.20
2023-02-11T00:59:41.609Z,40.40
2023-02-11T01:01:14.144Z,40.22
2023-02-11T01:02:53.113Z,42.22
2023-02-11T01:04:25.174Z,45.17
2023-02-11T01:06:04.042Z,41.67
2023-02-11T01:07:37.607Z,44.33
2023-02-11T01:09:09.728Z,40.42
2023-02-11T01:10:41.917Z,41.97
2023-02-11T01:12:15.333Z,40.60
2023-02-11T01:13:50.337Z,36.22
2023-02-11T01:15:22.910Z,38.60
2023-02-11T01:18:30.637Z,37.05
2023-02-11T01:20:10.679Z,35.75
2023-02-11T01:21:42.949Z,38.17
2023-02-11T01:23:15.352Z,38.67
2023-02-11T01:24:49.313Z,38.75
2023-02-11T01:26:21.470Z,41.25
2023-02-11T01:27:53.541Z,38.45
2023-02-11T01:29:26.187Z,40.88
2023-02-11T01:31:01.287Z,42.75
2023-02-11T01:32:34.371Z,35.08
2023-02-11T01:34:07.354Z,38.42
2023-02-11T01:35:42.265Z,35.75
2023-02-11T01:37:14.526Z,34.05
2023-02-11T01:38:46.585Z,38.55
2023-02-11T01:40:19.089Z,32.88
2023-02-11T01:41:51.487Z,36.20
2023-02-11T01:43:24.876Z,33.58
2023-02-11T01:44:58.172Z,34.25
2023-02-11T01:46:38.428Z,37.20
2023-02-11T01:48:15.403Z,31.75
2023-02-11T01:49:58.435Z,35.42
2023-02-11T01:51:40.931Z,36.00
2023-02-11T01:53:31.650Z,35.38
2023-02-11T01:55:25.384Z,34.67
2023-02-11T01:57:18.064Z,30.98
2023-02-11T01:58:52.261Z,31.73
2023-02-11T02:00:39.440Z,37.08
2023-02-11T02:02:13.344Z,34.83
2023-02-11T02:03:46.885Z,32.22
2023-02-11T02:05:27.732Z,34.58
2023-02-11T02:07:04.483Z,30.95
2023-02-11T02:08:53.047Z,41.58
2023-02-11T02:10:27.019Z,36.53
2023-02-11T02:11:59.179Z,29.77
2023-02-11T02:13:32.786Z,32.38
2023-02-11T02:15:21.292Z,33.95
2023-02-11T02:16:55.666Z,37.40
2023-02-11T02:18:40.708Z,31.48
2023-02-11T02:20:17.977Z,35.45
2023-02-11T02:22:28.562Z,31.10
2023-02-11T02:24:25.347Z,32.30
2023-02-11T02:26:20.061Z,30.35
2023-02-11T02:28:10.936Z,31.50
2023-02-11T02:30:01.567Z,36.78
2023-02-11T02:31:58.846Z,28.23
2023-02-11T02:34:01.726Z,31.45
2023-02-11T02:35:47.506Z,36.47
2023-02-11T02:37:33.491Z,33.75
2023-02-11T02:39:12.711Z,29.58
2023-02-11T02:40:46.489Z,34.95
2023-02-11T02:42:19.234Z,32.97
2023-02-11T02:43:52.343Z,28.52
2023-02-11T02:45:24.711Z,28.75
2023-02-11T02:47:00.075Z,35.50
2023-02-11T02:48:40.523Z,35.03
2023-02-11T02:50:21.214Z,34.65
2023-02-11T02:52:23.825Z,31.27
2023-02-11T02:54:44.098Z,23.38
2023-02-11T02:56:45.247Z,27.60
2023-02-11T02:58:25.646Z,32.30
2023-02-11T03:00:12.360Z,28.73
2023-02-11T03:02:11.957Z,27.55
2023-02-11T03:04:07.629Z,26.98
2023-02-11T03:05:55.929Z,24.75
2023-02-11T03:07:42.836Z,27.27
2023-02-11T03:09:26.725Z,27.20
2023-02-11T03:11:00.056Z,27.58
2023-02-11T03:12:33.701Z,29.73
2023-02-11T03:14:11.220Z,27.05
2023-02-11T03:15:46.254Z,30.80
2023-02-11T03:17:18.914Z,32.88
2023-02-11T03:18:59.978Z,33.15
2023-02-11T03:20:37.230Z,27.30
2023-02-11T03:22:16.471Z,28.98
2023-02-11T03:23:57.591Z,27.45
2023-02-11T03:25:37.882Z,29.92
2023-02-11T03:27:16.804Z,34.55
2023-02-11T03:28:55.063Z,26.25
2023-02-11T03:30:33.368Z,26.73
2023-02-11T03:32:16.496Z,33.63
2023-02-11T03:33:51.560Z,28.10
2023-02-11T03:35:34.979Z,32.92
2023-02-11T03:38:58.989Z,50.33
2023-02-11T03:40:33.526Z,27.02
2023-02-11T03:42:07.732Z,35.83
2023-02-11T03:43:52.003Z,31.20
2023-02-11T03:45:25.708Z,33.75
2023-02-11T03:46:58.159Z,31.30
2023-02-11T03:48:53.216Z,30.70
2023-02-11T03:50:26.941Z,32.10
2023-02-11T03:52:01.582Z,36.50
2023-02-11T03:53:34.348Z,36.30
2023-02-11T03:55:11.835Z,31.63
2023-02-11T03:56:56.672Z,30.98
2023-02-11T03:58:28.721Z,33.67
2023-02-11T04:00:01.077Z,33.60
2023-02-11T04:01:43.701Z,24.80
2023-02-11T04:03:15.917Z,26.17
2023-02-11T04:04:48.141Z,32.58
2023-02-11T04:06:20.322Z,40.20
2023-02-11T04:07:52.467Z,34.88
2023-02-11T04:09:24.531Z,39.80
2023-02-11T04:10:56.653Z,34.33
2023-02-11T04:12:29.420Z,38.20
2023-02-11T04:14:01.568Z,36.92
2023-02-11T04:15:33.677Z,34.58
2023-02-11T04:17:06.040Z,43.47
2023-02-11T04:18:38.127Z,39.95
2023-02-11T04:20:10.882Z,39.67
2023-02-11T04:21:43.056Z,42.38
2023-02-11T04:23:15.126Z,43.33
2023-02-11T04:24:47.248Z,48.40
2023-02-11T04:26:19.400Z,51.53
2023-02-11T04:27:51.551Z,45.55
2023-02-11T04:29:23.736Z,52.03
2023-02-11T04:30:56.393Z,53.65
2023-02-11T04:32:28.607Z,49.47
2023-02-11T04:34:00.948Z,55.15
2023-02-11T04:35:33.097Z,55.15
2023-02-11T04:37:05.454Z,51.08
2023-02-11T04:38:37.633Z,53.00
2023-02-11T04:40:10.405Z,55.75
2023-02-11T04:41:42.603Z,54.90
2023-02-11T04:43:15.126Z,47.33
2023-02-11T04:44:47.392Z,56.97
2023-02-11T04:46:19.590Z,53.28
2023-02-11T04:47:51.751Z,53.58
2023-02-11T04:49:23.873Z,51.95
2023-02-11T04:50:55.962Z,51.13
2023-02-11T04:52:28.033Z,47.40
2023-02-11T04:54:00.479Z,47.67
2023-02-11T04:55:32.720Z,44.35
2023-02-11T04:57:08.102Z,51.13
2023-02-11T04:58:40.286Z,40.47
2023-02-11T05:00:13.032Z,40.83
2023-02-11T05:01:45.246Z,47.92
2023-02-11T05:03:17.684Z,49.67
2023-02-11T05:04:49.889Z,39.30
2023-02-11T05:06:22.095Z,45.22
2023-02-11T05:07:54.369Z,52.60
2023-02-11T05:09:26.610Z,47.60
2023-02-11T05:10:59.076Z,50.53
2023-02-11T05:12:31.251Z,40.83
2023-02-11T05:14:06.234Z,40.95
2023-02-11T05:15:41.571Z,38.65
2023-02-11T05:17:15.190Z,42.72
2023-02-11T05:18:47.456Z,39.58
2023-02-11T05:20:20.947Z,40.05
2023-02-11T05:22:02.553Z,40.75
2023-02-11T05:23:38.799Z,39.40
2023-02-11T05:25:14.394Z,37.20
2023-02-11T05:28:18.663Z,37.80
2023-02-11T05:29:50.876Z,40.65
2023-02-11T05:31:22.926Z,47.72
2023-02-11T05:32:55.089Z,39.90
2023-02-11T05:34:27.298Z,33.55
2023-02-11T05:36:12.629Z,48.08
2023-02-11T05:37:44.825Z,45.70
2023-02-11T05:39:16.876Z,44.42
2023-02-11T05:40:49.131Z,58.13
2023-02-11T05:42:21.511Z,35.92
2023-02-11T05:43:53.661Z,36.67
2023-02-11T05:45:25.696Z,51.20
2023-02-11T05:46:57.880Z,46.92
2023-02-11T05:48:30.247Z,49.30
2023-02-11T05:50:02.408Z,40.35
2023-02-11T05:51:37.326Z,44.95
2023-02-11T05:53:09.468Z,45.45
2023-02-11T05:54:41.882Z,48.00
2023-02-11T05:56:14.829Z,45.90
2023-02-11T05:59:19.075Z,44.88
2023-02-11T06:00:51.220Z,40.50
2023-02-11T06:02:23.586Z,47.78
2023-02-11T06:03:55.718Z,40.13
2023-02-11T06:05:31.307Z,39.08
2023-02-11T06:07:04.060Z,39.58
2023-02-11T06:08:39.055Z,41.47
2023-02-11T06:10:13.033Z,44.80
2023-02-11T06:11:45.267Z,37.55
2023-02-11T06:13:18.963Z,46.33
2023-02-11T06:14:51.178Z,41.25
2023-02-11T06:16:23.346Z,48.00
2023-02-11T06:17:55.498Z,37.47
2023-02-11T06:19:27.709Z,39.53
2023-02-11T06:21:00.293Z,42.65
2023-02-11T06:22:32.516Z,48.55
2023-02-11T06:24:07.313Z,39.63
2023-02-11T06:25:39.627Z,43.58
2023-02-11T06:27:11.916Z,53.95
2023-02-11T06:28:44.222Z,46.33
2023-02-11T06:30:16.434Z,46.28
2023-02-11T06:31:48.796Z,40.15
2023-02-11T06:33:21.162Z,39.05
2023-02-11T06:34:53.408Z,42.00
2023-02-11T06:36:25.958Z,40.47
2023-02-11T06:37:58.382Z,33.30
2023-02-11T06:39:33.159Z,46.88
2023-02-11T06:41:05.649Z,41.28
2023-02-11T06:42:39.464Z,40.28
2023-02-11T06:44:11.814Z,45.60
2023-02-11T06:45:44.180Z,41.13
2023-02-11T06:47:16.432Z,41.95
2023-02-11T06:48:52.651Z,42.95
2023-02-11T06:50:28.137Z,40.40
2023-02-11T06:52:00.405Z,43.45
2023-02-11T06:53:35.938Z,38.85
2023-02-11T06:55:10.565Z,40.03
2023-02-11T06:56:44.725Z,47.20
2023-02-11T06:58:17.152Z,37.65
2023-02-11T06:59:51.448Z,43.33
2023-02-11T07:01:27.095Z,40.67
2023-02-11T07:02:59.639Z,42.30
2023-02-11T07:04:32.076Z,41.38
2023-02-11T07:06:08.555Z,40.65
2023-02-11T07:07:43.514Z,44.55
2023-02-11T07:09:18.133Z,47.33
2023-02-11T07:10:50.295Z,37.88
2023-02-11T07:12:22.448Z,40.00
2023-02-11T07:13:56.940Z,43.63
2023-02-11T07:15:29.224Z,41.97
2023-02-11T07:17:05.082Z,54.08
2023-02-11T07:18:37.670Z,48.95
2023-02-11T07:20:12.755Z,45.83
2023-02-11T07:21:45.147Z,41.33
2023-02-11T07:23:17.613Z,45.67
2023-02-11T07:24:50.179Z,38.50
2023-02-11T07:26:24.392Z,37.22
2023-02-11T07:27:56.893Z,41.70
2023-02-11T07:29:32.670Z,43.90
2023-02-11T07:31:14.469Z,42.00
2023-02-11T07:32:46.774Z,47.60
2023-02-11T07:34:21.156Z,56.13
2023-02-11T07:35:53.537Z,39.28
2023-02-11T07:37:25.998Z,46.10
2023-02-11T07:38:58.467Z,52.08
2023-02-11T07:40:31.865Z,40.17
2023-02-11T07:42:04.646Z,43.92
2023-02-11T07:43:37.609Z,41.35
2023-02-11T07:46:45.879Z,48.28
2023-02-11T07:48:20.488Z,45.38
2023-02-11T07:49:56.161Z,44.85
2023-02-11T07:51:30.223Z,51.47
2023-02-11T07:53:03.608Z,45.33
2023-02-11T07:54:36.483Z,51.67
2023-02-11T07:56:10.128Z,50.53
2023-02-11T07:57:45.763Z,53.90
2023-02-11T07:59:17.884Z,42.72
2023-02-11T08:00:50.172Z,48.30
2023-02-11T08:02:22.411Z,47.10
2023-02-11T08:03:59.083Z,52.95
2023-02-11T08:05:31.331Z,44.00
2023-02-11T08:07:26.430Z,48.65
2023-02-11T08:08:59.314Z,47.28
2023-02-11T08:12:04.003Z,50.78
2023-02-11T08:13:45.748Z,53.25
2023-02-11T08:15:32.339Z,47.53
2023-02-11T08:17:05.120Z,56.95
2023-02-11T08:18:39.906Z,53.83
2023-02-11T08:20:12.395Z,59.30
2023-02-11T08:21:45.068Z,55.28
2023-02-11T08:23:19.752Z,58.17
2023-02-11T08:24:57.409Z,57.42
2023-02-11T08:26:41.542Z,54.67
2023-02-11T08:28:18.204Z,56.10
2023-02-11T08:29:50.568Z,70.40
2023-02-11T08:31:23.862Z,56.58
2023-02-11T08:32:56.875Z,56.42
2023-02-11T08:34:29.189Z,62.78
2023-02-11T08:37:38.597Z,68.60
2023-02-11T08:39:21.770Z,57.55
2023-02-11T08:40:53.992Z,60.25
2023-02-11T08:42:26.413Z,57.45
2023-02-11T08:43:59.043Z,66.78
2023-02-11T08:45:31.777Z,67.00
2023-02-11T08:47:04.124Z,65.47
2023-02-11T08:48:36.448Z,78.45
2023-02-11T08:50:16.532Z,68.32
2023-02-11T08:52:08.068Z,68.28
2023-02-11T08:53:40.518Z,73.80
2023-02-11T08:55:12.849Z,77.28
2023-02-11T08:56:46.584Z,74.22
2023-02-11T08:58:23.834Z,75.05
2023-02-11T08:59:56.167Z,78.97
2023-02-11T09:01:37.003Z,75.07
2023-02-11T09:03:15.901Z,79.82
2023-02-11T09:04:48.481Z,78.72
2023-02-11T09:06:23.970Z,81.18
2023-02-11T09:08:02.323Z,88.35
2023-02-11T09:09:43.226Z,84.78
2023-02-11T09:11:16.019Z,77.97
2023-02-11T09:14:39.368Z,83.47
2023-02-11T09:17:27.321Z,76.30
2023-02-11T09:19:23.753Z,73.20
2023-02-11T09:21:15.897Z,74.75
2023-02-11T09:22:52.915Z,71.65
2023-02-11T09:24:36.557Z,78.22
2023-02-11T09:26:36.404Z,73.43
2023-02-11T09:28:11.960Z,78.35
2023-02-11T09:31:19.775Z,83.20
2023-02-11T09:32:52.221Z,81.00
2023-02-11T09:34:27.579Z,73.30
2023-02-11T09:36:04.507Z,76.53
2023-02-11T09:37:38.669Z,85.63
2023-02-11T09:39:17.329Z,78.18
2023-02-11T09:40:49.852Z,71.68
2023-02-11T09:42:43.679Z,84.05
2023-02-11T09:44:28.592Z,78.57
2023-02-11T09:46:09.696Z,73.95
2023-02-11T09:48:23.348Z,84.55
2023-02-11T09:50:15.423Z,91.43
2023-02-11T09:52:01.764Z,83.47
2023-02-11T09:54:30.965Z,83.05
2023-02-11T09:56:30.052Z,84.78
2023-02-11T09:58:27.574Z,73.78
2023-02-11T10:00:25.682Z,79.53
2023-02-11T10:03:08.916Z,82.07
2023-02-11T10:05:20.198Z,78.07
2023-02-11T10:07:22.190Z,71.90
2023-02-11T10:09:15.271Z,84.32
2023-02-11T10:11:07.216Z,74.05
2023-02-11T10:13:22.147Z,84.43
2023-02-11T10:15:17.500Z,86.00
2023-02-11T10:17:11.123Z,82.93
2023-02-11T10:19:11.607Z,87.25
2023-02-11T10:23:45.906Z,78.35
2023-02-11T10:25:38.319Z,85.25
2023-02-11T10:43:37.315Z,74.65
2023-02-11T10:46:31.881Z,83.55
2023-02-11T10:53:48.544Z,85.93
2023-02-11T10:56:32.041Z,76.47
2023-02-11T11:03:05.036Z,87.68
2023-02-11T11:07:36.089Z,84.65
2023-02-11T11:10:20.813Z,83.18
2023-02-11T11:12:42.379Z,77.05
2023-02-11T11:15:17.498Z,81.32
2023-02-11T11:16:36.272Z,82.43
2023-02-11T11:18:22.444Z,83.03
2023-02-11T11:30:13.915Z,72.07
2023-02-11T11:36:25.780Z,77.57
2023-02-11T11:42:07.697Z,80.05
2023-02-11T11:44:05.471Z,75.40
2023-02-11T11:46:25.774Z,82.97
2023-02-11T11:48:10.459Z,94.82
2023-02-11T11:50:31.829Z,80.80
2023-02-11T11:52:49.690Z,80.00
2023-02-11T11:54:30.513Z,79.35
2023-02-11T11:56:10.670Z,81.25
2023-02-11T11:57:45.579Z,82.50
2023-02-11T11:59:18.097Z,73.45
2023-02-11T12:01:24.569Z,81.35
2023-02-11T12:03:15.566Z,75.50
2023-02-11T12:05:20.735Z,80.72
2023-02-11T12:07:36.120Z,79.57
2023-02-11T12:09:33.838Z,81.32
2023-02-11T12:18:21.896Z,85.53
2023-02-11T12:20:34.761Z,77.65
2023-02-11T12:22:48.738Z,77.40
2023-02-11T12:25:03.055Z,83.50
2023-02-11T12:26:55.906Z,74.30
2023-02-11T12:29:05.281Z,88.05
2023-02-11T12:32:07.114Z,83.85
2023-02-11T12:33:53.026Z,84.28
2023-02-11T12:35:33.936Z,84.82
2023-02-11T12:37:47.541Z,85.28
2023-02-11T12:40:08.376Z,78.30
2023-02-11T12:45:26.170Z,84.45
2023-02-11T12:47:50.252Z,80.97
2023-02-11T12:53:24.567Z,75.18
2023-02-11T13:03:03.086Z,77.03
2023-02-11T13:06:35.158Z,71.75
2023-02-11T13:08:14.814Z,78.63
2023-02-11T13:13:34.070Z,71.60
2023-02-11T13:15:14.303Z,84.55
2023-02-11T13:44:00.426Z,69.93
2023-02-11T14:53:00.231Z,65.75
2023-02-11T15:02:54.981Z,68.80
2023-02-11T15:03:14.198Z,70.43
2023-02-11T15:05:00.372Z,65.63
2023-02-11T15:10:02.688Z,71.70
2023-02-11T15:12:19.160Z,72.53
2023-02-11T15:14:09.363Z,65.30
2023-02-11T15:15:44.306Z,69.63
2023-02-11T15:19:03.767Z,70.78
2023-02-11T15:20:36.217Z,69.35
2023-02-11T15:22:25.983Z,73.25
2023-02-11T15:24:11.041Z,74.80
2023-02-11T15:25:53.156Z,67.25
2023-02-11T15:27:28.034Z,69.97
2023-02-11T15:29:02.272Z,73.72
2023-02-11T15:30:35.372Z,75.38
2023-02-11T15:32:18.128Z,68.68
2023-02-11T15:34:07.807Z,73.70
2023-02-11T15:35:41.348Z,62.72
2023-02-11T15:37:27.480Z,76.28
2023-02-11T15:39:34.622Z,73.45
2023-02-11T15:41:07.804Z,65.55
2023-02-11T15:42:52.198Z,65.43
2023-02-11T15:44:34.191Z,73.65
2023-02-11T15:46:11.353Z,67.75
2023-02-11T15:47:51.496Z,78.93
2023-02-11T15:49:25.086Z,69.95
2023-02-11T15:50:59.511Z,68.07
2023-02-11T15:52:33.046Z,72.10
2023-02-11T15:54:23.029Z,76.97
2023-02-11T15:56:24.464Z,74.38
2023-02-11T15:58:00.082Z,67.95
2023-02-11T15:59:40.722Z,72.45
2023-02-11T16:01:14.468Z,73.57
2023-02-11T16:02:47.055Z,78.85
2023-02-11T16:04:22.239Z,76.20
2023-02-11T16:05:56.826Z,73.80
2023-02-11T16:07:45.651Z,69.63
2023-02-11T16:09:17.696Z,70.78
2023-02-11T16:11:02.919Z,74.43
2023-02-11T16:12:38.367Z,74.32
2023-02-11T16:14:27.554Z,75.53
2023-02-11T16:16:22.171Z,77.15
2023-02-11T16:17:54.860Z,76.45
2023-02-11T16:19:28.148Z,75.10
2023-02-11T16:21:01.737Z,68.43
2023-02-11T16:22:38.348Z,75.07
2023-02-11T16:24:22.762Z,74.30
2023-02-11T16:25:59.938Z,72.82
2023-02-11T16:27:38.719Z,77.78
2023-02-11T16:29:17.155Z,75.78
2023-02-11T16:30:53.645Z,70.22
2023-02-11T16:32:28.159Z,73.90
2023-02-11T16:34:00.384Z,70.97
2023-02-11T16:35:33.082Z,77.10
2023-02-11T16:37:06.176Z,74.68
2023-02-11T16:40:12.896Z,72.53
2023-02-11T16:41:45.385Z,73.15
2023-02-11T16:43:22.170Z,70.45
2023-02-11T16:44:54.415Z,74.15
2023-02-11T16:46:28.966Z,73.05
2023-02-11T16:48:02.570Z,74.53
2023-02-11T16:49:42.010Z,71.22
2023-02-11T16:51:14.368Z,81.03
2023-02-11T16:52:49.042Z,83.20
2023-02-11T16:54:21.339Z,75.95
2023-02-11T16:55:56.151Z,75.80
2023-02-11T16:57:30.337Z,83.65
2023-02-11T16:59:02.958Z,78.35
2023-02-11T17:00:36.642Z,74.45
2023-02-11T17:02:24.489Z,84.50
2023-02-11T17:03:56.694Z,82.82
2023-02-11T17:05:28.860Z,83.55
2023-02-11T17:07:01.115Z,77.93
2023-02-11T17:08:35.874Z,81.65
2023-02-11T17:10:19.928Z,83.40
2023-02-11T17:11:56.986Z,76.18
2023-02-11T17:13:41.957Z,81.20
2023-02-11T17:15:14.383Z,75.18
2023-02-11T17:16:50.069Z,82.03
2023-02-11T17:18:22.440Z,78.95
2023-02-11T17:19:57.772Z,86.90
2023-02-11T17:21:34.592Z,77.57
2023-02-11T17:23:07.021Z,81.13
2023-02-11T17:24:40.859Z,83.10
2023-02-11T17:26:13.702Z,79.65
2023-02-11T17:29:23.959Z,80.10
2023-02-11T17:30:56.352Z,87.68
2023-02-11T17:32:30.009Z,83.82
2023-02-11T17:34:04.839Z,82.07
2023-02-11T17:35:41.815Z,84.88
2023-02-11T17:37:14.414Z,79.80
2023-02-11T17:38:49.166Z,81.88
2023-02-11T17:42:29.735Z,81.10
2023-02-11T17:44:01.625Z,80.20
2023-02-11T17:45:46.911Z,75.70
2023-02-11T17:47:16.188Z,77.05
2023-02-11T17:48:48.499Z,86.28
2023-02-11T17:50:48.159Z,78.10
2023-02-11T17:54:03.322Z,86.60
2023-02-11T17:55:13.115Z,81.00
2023-02-11T17:56:55.198Z,91.03
2023-02-11T17:58:33.767Z,88.45
2023-02-11T18:00:18.860Z,91.75
2023-02-11T18:02:03.754Z,84.28
2023-02-11T18:03:39.020Z,85.82
2023-02-11T18:05:25.178Z,89.68
2023-02-11T18:07:53.456Z,87.22
2023-02-11T18:09:27.957Z,84.53
2023-02-11T18:11:32.422Z,87.07
2023-02-11T18:13:32.570Z,86.05
2023-02-11T18:15:40.149Z,81.68
2023-02-11T18:17:31.306Z,83.97
2023-02-11T18:19:21.183Z,82.40
2023-02-11T18:21:41.151Z,86.55
2023-02-11T18:23:36.096Z,87.10
2023-02-11T18:25:27.658Z,87.38
2023-02-11T18:35:31.603Z,84.05
2023-02-11T18:38:18.313Z,81.07
2023-02-11T18:53:24.976Z,88.05
2023-02-11T19:36:24.053Z,102.20
2023-02-11T19:41:36.060Z,92.72
2023-02-11T19:45:20.215Z,92.28
2023-02-11T19:47:30.194Z,101.18
2023-02-11T19:49:07.677Z,98.80
2023-02-11T19:57:25.202Z,87.50
2023-02-11T19:59:11.019Z,93.70
2023-02-11T20:05:23.974Z,87.05
2023-02-11T20:07:06.336Z,106.70
2023-02-11T20:09:45.743Z,102.47
2023-02-11T20:11:38.596Z,100.60
2023-02-11T20:13:22.730Z,91.03
2023-02-11T20:17:08.088Z,91.72
2023-02-11T20:18:40.739Z,95.07
2023-02-11T20:20:13.213Z,86.35
2023-02-11T20:21:53.141Z,87.88
2023-02-11T20:23:41.071Z,94.25
2023-02-11T20:25:29.666Z,95.75
2023-02-11T20:27:08.577Z,87.03
2023-02-11T20:28:41.931Z,93.45
2023-02-11T20:30:14.661Z,96.80
2023-02-11T20:31:54.792Z,98.00
2023-02-11T20:33:30.079Z,96.05
2023-02-11T20:35:02.921Z,93.07
2023-02-11T20:36:37.884Z,88.07
2023-02-11T20:38:09.806Z,88.47
2023-02-11T20:39:45.015Z,92.40
2023-02-11T20:41:23.630Z,98.72
2023-02-11T20:42:56.936Z,96.18
2023-02-11T20:44:29.133Z,90.45
2023-02-11T20:46:05.259Z,91.15
2023-02-11T20:47:38.406Z,93.03
2023-02-11T20:50:48.737Z,92.68
2023-02-11T20:52:20.787Z,92.20
2023-02-11T20:53:53.477Z,95.88
2023-02-11T20:55:25.534Z,99.75
2023-02-11T20:56:58.466Z,101.70
2023-02-11T21:00:03.320Z,88.35
2023-02-11T21:03:10.974Z,88.13
2023-02-11T21:04:42.883Z,90.72
2023-02-11T21:06:14.927Z,100.28
2023-02-11T21:07:47.017Z,94.22
2023-02-11T21:09:22.123Z,94.15
2023-02-11T21:10:57.480Z,92.05
2023-02-11T21:12:38.120Z,88.13
2023-02-11T21:14:10.465Z,98.43
2023-02-11T21:15:42.558Z,90.10
2023-02-11T21:17:14.463Z,86.78
2023-02-11T21:18:47.472Z,97.10
2023-02-11T21:20:19.504Z,82.80
2023-02-11T21:21:51.617Z,86.77
2023-02-11T21:23:24.145Z,85.53
2023-02-11T21:24:56.104Z,92.25
2023-02-11T21:26:28.167Z,91.37
2023-02-11T21:28:00.275Z,87.53
2023-02-11T21:29:34.042Z,90.00
2023-02-11T21:31:09.060Z,91.15
2023-02-11T21:32:47.786Z,93.03
2023-02-11T21:34:22.288Z,88.43
2023-02-11T21:36:25.688Z,94.32
2023-02-11T21:38:03.267Z,89.68
2023-02-11T21:39:40.091Z,83.28
2023-02-11T21:41:31.255Z,86.03
2023-02-11T21:43:09.759Z,87.45
2023-02-11T21:44:53.280Z,88.93
2023-02-11T21:46:25.492Z,67.53
2023-02-11T21:48:25.154Z,84.10
2023-02-11T21:50:00.379Z,85.63
2023-02-11T21:51:32.500Z,88.28
2023-02-11T21:53:06.923Z,86.05
2023-02-11T21:54:39.118Z,85.47
2023-02-11T21:56:22.554Z,94.07
2023-02-11T21:57:55.124Z,88.75
2023-02-11T21:59:33.630Z,91.90
2023-02-11T22:01:28.578Z,96.15
2023-02-11T22:03:00.922Z,88.25
2023-02-11T22:04:33.622Z,95.40
2023-02-11T22:06:21.428Z,91.53
2023-02-11T22:08:49.149Z,89.45
2023-02-11T22:10:33.903Z,83.75
2023-02-11T22:12:11.613Z,93.72
2023-02-11T22:13:46.559Z,86.20
2023-02-11T22:15:18.628Z,90.18
2023-02-11T22:16:50.761Z,92.40
2023-02-11T22:18:23.059Z,94.18
2023-02-11T22:19:57.433Z,97.22
2023-02-11T22:21:29.612Z,97.28
2023-02-11T22:23:01.606Z,90.80
2023-02-11T22:24:36.043Z,90.17
2023-02-11T22:26:17.298Z,91.82
2023-02-11T22:27:49.371Z,86.43
2023-02-11T22:29:21.351Z,80.72
2023-02-11T22:30:57.749Z,90.88
2023-02-11T22:32:29.865Z,83.95
2023-02-11T22:34:06.151Z,83.95
2023-02-11T22:35:40.532Z,88.35
2023-02-11T22:37:14.569Z,93.53
2023-02-11T22:38:47.091Z,88.78
2023-02-11T22:40:21.843Z,93.40
2023-02-11T22:41:56.827Z,87.88
2023-02-11T22:43:28.992Z,98.03
2023-02-11T22:45:03.578Z,89.35
2023-02-11T22:46:36.259Z,89.60
2023-02-11T22:48:08.171Z,88.72
2023-02-11T22:49:41.519Z,100.43
2023-02-11T22:51:21.204Z,89.78
2023-02-11T22:52:53.754Z,97.75
2023-02-11T22:54:25.782Z,88.10
2023-02-11T22:56:02.222Z,95.73
2023-02-11T22:57:34.272Z,84.72
2023-02-11T22:59:08.445Z,93.60
2023-02-11T23:00:41.632Z,83.07
2023-02-11T23:02:15.951Z,89.70
2023-02-11T23:03:48.428Z,96.13
2023-02-11T23:05:20.502Z,88.90
2023-02-11T23:06:52.539Z,80.65
2023-02-11T23:08:25.232Z,87.93
2023-02-11T23:09:57.126Z,89.95
2023-02-11T23:11:30.811Z,88.30
2023-02-11T23:13:06.970Z,91.30
2023-02-11T23:14:39.525Z,82.53
2023-02-11T23:16:14.814Z,89.40
2023-02-11T23:17:49.586Z,92.40
2023-02-11T23:19:21.951Z,83.35
2023-02-11T23:20:54.427Z,82.50
2023-02-11T23:22:26.792Z,86.07
2023-02-11T23:24:03.660Z,88.30
2023-02-11T23:25:35.891Z,88.72
2023-02-11T23:27:08.081Z,90.75
2023-02-11T23:28:40.350Z,72.95
2023-02-11T23:30:13.217Z,88.93
2023-02-11T23:31:46.749Z,95.85
2023-02-11T23:33:19.486Z,92.53
2023-02-11T23:34:52.972Z,97.28
2023-02-11T23:36:25.234Z,92.97
2023-02-11T23:38:00.298Z,87.80
2023-02-11T23:39:32.538Z,90.57
2023-02-11T23:41:05.020Z,81.97
2023-02-11T23:42:37.363Z,93.38
2023-02-11T23:44:10.417Z,91.00
2023-02-11T23:47:16.265Z,88.80
2023-02-11T23:48:49.271Z,87.22
2023-02-11T23:50:21.619Z,88.60
2023-02-11T23:51:53.918Z,89.28
2023-02-11T23:53:26.120Z,91.55
2023-02-11T23:54:58.339Z,74.50
2023-02-11T23:56:30.828Z,88.13
2023-02-11T23:58:04.959Z,84.25
2023-02-11T23:59:37.216Z,84.68
